Time;durP1;ratioP1;P1;durP2;ratioP2;P2;SDS_P1;SDS_P2;PMS_P1;PMS_P2;Temp;Humidity;BMP_temperature;BMP_pressure;BME280_temperature;BME280_humidity;BME280_pressure;Samples;Min_cycle;Max_cycle;Signal;HPM_P1;HPM_P2
2022/12/30 00:01:18;;;;;;;18.30;11.10;;;;;;;5.79;60.73;97053.14;1762266;79;25909;-76
2022/12/30 00:03:46;;;;;;;19.75;11.22;;;;;;;5.79;60.71;97056.33;1751515;79;25743;-74
2022/12/30 00:06:18;;;;;;;15.00;9.68;;;;;;;5.76;60.68;97059.37;1733414;79;25700;-74
2022/12/30 00:08:48;;;;;;;19.80;10.73;;;;;;;5.74;60.66;97064.92;1775120;79;25860;-74
2022/12/30 00:11:21;;;;;;;17.92;10.23;;;;;;;5.74;60.69;97056.05;1777092;79;28045;-73
2022/12/30 00:34:02;;;;;;;13.78;8.65;;;;;;;5.77;60.50;97048.98;1697613;81;25872;-73
2022/12/30 00:36:29;;;;;;;14.75;8.98;;;;;;;5.78;60.43;97043.95;1697776;81;25929;-73
2022/12/30 00:38:57;;;;;;;14.70;8.20;;;;;;;5.80;60.39;97054.77;1697747;81;27475;-75
2022/12/30 00:44:09;;;;;;;30.20;13.43;;;;;;;5.78;60.36;97051.98;1697800;81;25771;-75
2022/12/30 00:46:37;;;;;;;28.40;12.58;;;;;;;5.81;60.39;97055.61;1710292;83;25863;-73
2022/12/30 00:57:19;;;;;;;22.85;11.28;;;;;;;5.81;60.40;97048.91;1697774;81;25780;-74
2022/12/30 00:59:46;;;;;;;17.40;10.40;;;;;;;5.80;60.44;97048.59;1697959;81;25829;-76
2022/12/30 01:02:12;;;;;;;26.52;11.85;;;;;;;5.78;60.46;97051.98;1729954;79;26281;-73
2022/12/30 01:04:39;;;;;;;27.35;13.20;;;;;;;5.75;60.42;97047.00;1777065;79;27376;-75
2022/12/30 01:07:06;;;;;;;22.58;11.00;;;;;;;5.72;60.47;97058.09;1734663;79;25778;-73
2022/12/30 01:09:35;;;;;;;16.75;9.73;;;;;;;5.65;60.54;97051.84;1733467;79;26445;-74
2022/12/30 01:12:09;;;;;;;21.05;11.33;;;;;;;5.62;60.52;97050.87;1746707;79;26495;-74
2022/12/30 01:14:45;;;;;;;19.73;10.15;;;;;;;5.64;60.67;97060.38;1747161;80;25677;-74
2022/12/30 01:17:17;;;;;;;21.42;10.88;;;;;;;5.60;60.56;97058.26;1748525;80;27388;-74
2022/12/30 01:19:44;;;;;;;24.13;11.30;;;;;;;5.58;60.68;97058.95;1685880;84;25967;-75
2022/12/30 01:22:11;;;;;;;21.68;11.63;;;;;;;5.56;60.69;97052.95;1692445;84;25831;-76
2022/12/30 01:24:38;;;;;;;21.97;10.93;;;;;;;5.56;60.72;97050.27;1692474;84;25860;-74
2022/12/30 01:27:06;;;;;;;23.67;11.80;;;;;;;5.50;60.78;97043.84;1692555;84;25449;-75
2022/12/30 01:29:37;;;;;;;23.27;11.45;;;;;;;5.43;60.75;97039.73;1692399;84;27385;-74
2022/12/30 01:32:08;;;;;;;13.20;8.45;;;;;;;5.41;60.86;97039.12;1692681;84;25918;-74
2022/12/30 01:34:36;;;;;;;16.25;9.23;;;;;;;5.38;60.85;97038.14;1650889;86;25771;-73
2022/12/30 01:37:03;;;;;;;16.67;9.15;;;;;;;5.43;60.80;97033.04;1650946;86;25860;-73
2022/12/30 01:39:30;;;;;;;15.70;7.70;;;;;;;5.45;60.82;97030.17;1651177;86;25776;-75
2022/12/30 01:41:57;;;;;;;15.83;9.05;;;;;;;5.53;60.71;97022.56;1651023;86;27389;-72
2022/12/30 01:44:59;;;;;;;16.32;8.93;;;;;;;5.68;60.71;97005.91;1650829;86;25904;-73
2022/12/30 01:47:43;;;;;;;15.37;8.53;;;;;;;5.82;60.47;97018.94;1651093;86;26317;-73
2022/12/30 01:50:15;;;;;;;17.17;9.30;;;;;;;5.96;60.33;97017.58;1650991;86;26746;-75
2022/12/30 01:52:50;;;;;;;14.55;8.13;;;;;;;6.07;60.09;97025.09;1651283;86;25748;-73
2022/12/30 01:55:25;;;;;;;12.85;7.67;;;;;;;6.16;59.91;97020.96;1633493;87;27481;-73
2022/12/30 01:57:54;;;;;;;16.73;9.78;;;;;;;6.29;59.70;97008.98;1556179;91;25921;-73
2022/12/30 02:00:21;;;;;;;13.98;8.88;;;;;;;6.32;59.53;97008.61;1558355;90;25913;-74
2022/12/30 02:02:48;;;;;;;16.73;9.78;;;;;;;6.22;59.46;97010.28;1562050;90;25814;-75
2022/12/30 02:05:20;;;;;;;16.07;9.73;;;;;;;6.09;59.50;97006.15;1562081;90;26006;-74
2022/12/30 02:08:10;;;;;;;16.50;9.73;;;;;;;5.96;59.62;97014.89;1561858;90;46437;-73
2022/12/30 02:10:39;;;;;;;20.35;10.72;;;;;;;5.82;59.76;97011.73;1561814;90;25766;-72
2022/12/30 02:13:06;;;;;;;17.50;11.10;;;;;;;5.66;59.94;97010.66;1562073;90;25836;-74
2022/12/30 02:15:41;;;;;;;28.27;13.88;;;;;;;5.58;60.13;97000.05;1563098;90;26449;-73
2022/12/30 02:18:32;;;;;;;21.62;12.37;;;;;;;5.52;60.25;97002.99;1573278;89;26032;-73
2022/12/30 02:21:29;;;;;;;18.62;11.00;;;;;;;5.47;60.35;96995.19;1546459;91;28066;-75
2022/12/30 02:24:39;;;;;;;21.85;10.40;;;;;;;5.42;60.45;96998.45;1558982;91;26521;-74
2022/12/30 02:27:45;;;;;;;15.70;9.83;;;;;;;5.35;60.56;96997.02;1560597;91;25466;-73
2022/12/30 02:30:20;;;;;;;17.80;10.20;;;;;;;5.25;60.73;96996.50;1517210;94;25860;-75
2022/12/30 02:33:03;;;;;;;18.35;10.30;;;;;;;5.18;60.89;96994.27;1500027;94;25859;-73
2022/12/30 02:36:04;;;;;;;17.55;10.03;;;;;;;5.13;61.01;96990.48;1526870;93;27466;-74
2022/12/30 02:38:47;;;;;;;16.73;10.85;;;;;;;5.09;61.10;96983.33;1532478;91;25830;-75
2022/12/30 02:47:12;;;;;;;17.05;10.38;;;;;;;4.85;61.51;96978.28;1504061;94;25713;-74
2022/12/30 02:49:41;;;;;;;16.37;9.60;;;;;;;4.80;61.63;96975.36;1503053;94;28259;-72
2022/12/30 02:52:15;;;;;;;16.50;9.28;;;;;;;4.76;61.73;96978.06;1485615;95;25975;-73
2022/12/30 02:54:45;;;;;;;16.17;9.68;;;;;;;4.73;61.84;96979.27;1509053;94;25855;-73
2022/12/30 02:57:30;;;;;;;18.52;9.75;;;;;;;4.77;61.88;96985.08;1514614;94;25848;-73
2022/12/30 03:06:36;;;;;;;16.57;9.88;;;;;;;4.79;61.98;96984.39;1473870;97;25925;-73
2022/12/30 03:09:32;;;;;;;15.90;9.80;;;;;;;4.77;62.08;96975.72;1473584;97;25927;-73
2022/12/30 03:12:16;;;;;;;16.20;10.05;;;;;;;4.78;62.07;96978.72;1473873;97;25887;-75
2022/12/30 03:14:51;;;;;;;16.73;9.85;;;;;;;4.76;62.13;96978.06;1473870;97;25845;-75
2022/12/30 03:17:28;;;;;;;16.95;9.65;;;;;;;4.70;62.19;96980.48;1462902;97;27426;-74
2022/12/30 03:20:00;;;;;;;15.80;9.30;;;;;;;4.68;62.29;96982.52;1470335;97;25854;-73
2022/12/30 03:28:06;;;;;;;18.55;10.68;;;;;;;4.70;62.31;96981.83;1542427;93;25695;-73
2022/12/30 03:30:38;;;;;;;23.15;12.40;;;;;;;4.69;62.38;96982.84;1542498;91;27390;-73
2022/12/30 03:33:05;;;;;;;19.82;9.70;;;;;;;4.73;62.37;96981.11;1540025;93;25812;-74
2022/12/30 03:35:36;;;;;;;18.48;10.58;;;;;;;4.73;62.33;96989.95;1542447;91;25886;-75
2022/12/30 03:38:06;;;;;;;15.35;9.43;;;;;;;4.73;62.34;96985.12;1542100;91;25971;-73
2022/12/30 03:40:40;;;;;;;18.27;9.95;;;;;;;4.73;62.34;96991.30;1613785;83;25903;-73
2022/12/30 03:43:08;;;;;;;26.45;11.75;;;;;;;4.74;62.33;96988.11;1686917;83;27396;-73
2022/12/30 03:45:35;;;;;;;20.20;11.08;;;;;;;4.76;62.34;96986.09;1715212;83;25770;-74
2022/12/30 03:48:02;;;;;;;18.30;11.25;;;;;;;4.74;62.32;96997.47;1715427;83;25892;-74
2022/12/30 03:50:28;;;;;;;18.37;11.28;;;;;;;4.71;62.31;96991.47;1715339;83;25678;-73
2022/12/30 03:52:55;;;;;;;19.35;11.15;;;;;;;4.70;62.35;96995.19;1715454;82;25769;-73
2022/12/30 03:55:22;;;;;;;18.27;11.03;;;;;;;4.72;62.35;96997.66;1715505;83;27350;-74
2022/12/30 03:57:48;;;;;;;18.30;9.85;;;;;;;4.65;62.33;96998.91;1715457;83;25757;-73
2022/12/30 04:00:15;;;;;;;17.82;10.25;;;;;;;4.60;62.43;97001.30;1715373;83;25840;-73
2022/12/30 04:02:42;;;;;;;19.45;10.48;;;;;;;4.57;62.51;97007.53;1715319;83;25706;-75
2022/12/30 04:05:09;;;;;;;19.30;10.75;;;;;;;4.54;62.55;97010.06;1715088;83;25739;-73
2022/12/30 04:07:36;;;;;;;23.77;12.10;;;;;;;4.50;62.62;97014.10;1715098;83;27418;-73
2022/12/30 04:10:05;;;;;;;29.32;15.78;;;;;;;4.49;62.65;97015.11;1715453;82;25851;-74
2022/12/30 04:12:32;;;;;;;31.60;17.92;;;;;;;4.49;62.70;97023.13;1715454;83;25932;-74
2022/12/30 04:14:58;;;;;;;32.50;18.17;;;;;;;4.43;62.74;97010.52;1715440;83;26292;-75
2022/12/30 04:17:25;;;;;;;30.10;17.42;;;;;;;4.40;62.81;97013.55;1785453;78;25758;-75
2022/12/30 04:19:52;;;;;;;24.60;14.20;;;;;;;4.43;62.92;97015.86;1825951;77;27409;-73
2022/12/30 04:22:18;;;;;;;23.92;13.62;;;;;;;4.40;62.91;97016.22;1803691;78;25617;-73
2022/12/30 04:24:45;;;;;;;24.18;13.65;;;;;;;4.38;63.01;97022.24;1816847;76;25665;-74
2022/12/30 04:27:11;;;;;;;23.02;13.72;;;;;;;4.34;63.04;97023.64;1806548;76;25668;-73
2022/12/30 04:29:38;;;;;;;24.32;14.98;;;;;;;4.38;63.17;97030.26;1800278;77;25786;-73
2022/12/30 04:32:05;;;;;;;27.10;16.10;;;;;;;4.37;63.17;97023.25;1800064;77;27362;-75
2022/12/30 04:34:32;;;;;;;23.92;15.25;;;;;;;4.36;63.27;97029.61;1810855;78;25753;-74
2022/12/30 04:36:58;;;;;;;24.10;15.23;;;;;;;4.27;63.25;97030.70;1812497;77;25684;-74
2022/12/30 04:39:25;;;;;;;26.50;16.15;;;;;;;4.30;63.36;97032.52;1800181;78;25852;-75
2022/12/30 04:41:51;;;;;;;26.87;16.07;;;;;;;4.34;63.42;97032.48;1818286;78;25803;-73
2022/12/30 04:44:18;;;;;;;30.17;17.48;;;;;;;4.39;63.42;97033.26;1833180;76;28140;-73
2022/12/30 04:46:45;;;;;;;24.57;14.23;;;;;;;4.40;63.41;97032.75;1832819;76;25298;-75
2022/12/30 04:49:12;;;;;;;20.02;11.55;;;;;;;4.41;63.50;97036.59;1831280;76;25747;-73
2022/12/30 04:51:38;;;;;;;21.07;11.50;;;;;;;4.46;63.48;97038.22;1800227;78;25710;-73
2022/12/30 04:54:05;;;;;;;21.07;11.83;;;;;;;4.55;63.52;97042.47;1800374;78;25802;-73
2022/12/30 04:56:32;;;;;;;17.12;9.13;;;;;;;4.62;63.52;97042.05;1823532;76;27303;-73
2022/12/30 04:58:58;;;;;;;12.37;8.13;;;;;;;4.68;63.48;97049.35;1800106;76;25687;-73
2022/12/30 05:01:26;;;;;;;14.07;8.40;;;;;;;4.75;63.38;97052.11;1829719;76;25710;-73
2022/12/30 05:03:53;;;;;;;13.72;7.72;;;;;;;4.81;63.30;97059.41;1816632;78;25695;-73
2022/12/30 05:06:19;;;;;;;12.60;7.90;;;;;;;4.88;63.30;97044.78;1800462;77;25670;-72
2022/12/30 05:08:46;;;;;;;12.63;8.00;;;;;;;4.91;63.32;97052.45;1800453;78;27354;-73
2022/12/30 05:11:13;;;;;;;15.00;8.83;;;;;;;4.93;63.30;97054.44;1799965;76;25753;-73
2022/12/30 05:13:39;;;;;;;20.52;11.48;;;;;;;4.95;63.25;97064.45;1800448;78;25870;-73
2022/12/30 05:16:06;;;;;;;17.77;10.53;;;;;;;4.98;63.29;97068.06;1800317;78;26522;-75
2022/12/30 05:18:33;;;;;;;16.60;10.18;;;;;;;4.98;63.19;97066.22;1800042;76;25402;-74
2022/12/30 05:20:59;;;;;;;16.17;9.83;;;;;;;5.00;63.13;97088.78;1800630;78;27390;-75
2022/12/30 05:26:15;;;;;;;13.98;8.13;;;;;;;5.04;63.12;97073.52;1810363;76;25616;-73
2022/12/30 05:28:47;;;;;;;16.82;9.83;;;;;;;5.03;63.21;97081.73;1824233;77;25822;-73
2022/12/30 05:31:15;;;;;;;16.65;9.80;;;;;;;5.03;63.33;97100.45;1821426;77;25827;-72
2022/12/30 05:33:44;;;;;;;16.27;10.32;;;;;;;4.99;63.31;97093.80;1799975;76;28273;-74
2022/12/30 05:36:11;;;;;;;16.48;10.18;;;;;;;5.00;63.34;97102.16;1811987;78;25820;-73
2022/12/30 05:38:39;;;;;;;17.30;10.20;;;;;;;4.99;63.36;97111.19;1800345;77;25809;-74
2022/12/30 05:41:08;;;;;;;15.88;9.55;;;;;;;5.01;63.49;97110.50;1800376;76;25677;-73
2022/12/30 05:43:34;;;;;;;15.88;10.25;;;;;;;4.99;63.50;97117.38;1818547;76;25716;-72
2022/12/30 05:46:01;;;;;;;20.52;12.40;;;;;;;4.92;63.50;97117.80;1833370;78;26790;-75
2022/12/30 05:48:28;;;;;;;34.73;21.30;;;;;;;4.91;63.52;97115.30;1833383;78;25671;-73
2022/12/30 05:50:54;;;;;;;20.37;13.60;;;;;;;4.89;63.63;97121.33;1807890;77;25706;-73
2022/12/30 05:53:21;;;;;;;35.03;21.05;;;;;;;4.87;63.72;97128.20;1800256;78;26444;-75
2022/12/30 05:55:48;;;;;;;22.37;14.23;;;;;;;4.83;63.75;97126.89;1800390;77;25772;-73
2022/12/30 05:58:14;;;;;;;26.62;16.57;;;;;;;4.82;63.84;97124.42;1800327;76;27391;-73
2022/12/30 06:00:41;;;;;;;21.37;12.50;;;;;;;4.80;63.88;97127.27;1800327;78;26047;-73
2022/12/30 06:03:08;;;;;;;23.73;13.28;;;;;;;4.80;64.08;97134.47;1806519;78;25940;-73
2022/12/30 06:05:35;;;;;;;27.58;15.58;;;;;;;4.80;64.24;97131.79;1816358;76;26570;-72
2022/12/30 06:08:01;;;;;;;21.30;11.70;;;;;;;4.76;64.29;97143.85;1823530;77;25640;-73
2022/12/30 06:10:28;;;;;;;20.23;11.65;;;;;;;4.75;64.20;97143.53;1814108;78;27344;-73
2022/12/30 06:12:55;;;;;;;116.50;39.73;;;;;;;4.82;64.19;97152.50;1809879;77;25794;-73
2022/12/30 06:15:21;;;;;;;140.68;47.60;;;;;;;4.87;64.20;97156.78;1833429;76;25679;-73
2022/12/30 06:17:48;;;;;;;79.45;28.98;;;;;;;4.89;64.19;97160.95;1806074;77;25671;-73
2022/12/30 06:20:15;;;;;;;117.82;40.15;;;;;;;4.89;64.21;97144.06;1811585;77;25732;-73
2022/12/30 06:22:41;;;;;;;97.55;34.30;;;;;;;4.90;64.22;97155.92;1787994;78;27365;-75
2022/12/30 06:25:08;;;;;;;57.80;21.60;;;;;;;4.90;64.25;97151.91;1809277;78;25807;-72
2022/12/30 06:27:35;;;;;;;65.57;26.50;;;;;;;4.93;64.15;97156.08;1812568;78;25711;-75
2022/12/30 06:30:03;;;;;;;75.57;31.55;;;;;;;5.00;64.26;97154.31;1780459;77;25693;-75
2022/12/30 06:32:31;;;;;;;80.53;32.85;;;;;;;5.02;64.36;97155.80;1788773;77;25923;-72
2022/12/30 06:34:58;;;;;;;80.12;31.35;;;;;;;5.04;64.43;97159.13;1802129;78;28379;-73
2022/12/30 06:37:25;;;;;;;67.45;26.62;;;;;;;5.05;64.61;97162.64;1780350;77;25201;-73
2022/12/30 06:39:51;;;;;;;67.95;25.17;;;;;;;5.04;64.48;97169.83;1798808;78;25753;-73
2022/12/30 06:42:18;;;;;;;59.77;23.32;;;;;;;5.05;64.53;97176.02;1792478;77;25687;-73
2022/12/30 06:44:45;;;;;;;54.53;22.17;;;;;;;5.03;64.57;97180.71;1811017;78;26478;-72
2022/12/30 06:47:11;;;;;;;38.85;18.67;;;;;;;5.06;64.61;97189.72;1824423;77;28027;-73
2022/12/30 06:49:38;;;;;;;27.15;11.48;;;;;;;5.05;64.78;97190.73;1823905;77;25711;-75
2022/12/30 06:52:05;;;;;;;26.60;12.35;;;;;;;5.05;64.78;97194.74;1814980;77;25712;-75
2022/12/30 06:54:32;;;;;;;21.17;11.48;;;;;;;5.08;64.83;97198.38;1780356;77;26469;-73
2022/12/30 06:56:58;;;;;;;18.23;9.60;;;;;;;5.12;64.92;97205.03;1786001;77;25686;-73
2022/12/30 06:59:25;;;;;;;16.82;9.60;;;;;;;5.12;65.13;97211.72;1805322;77;27342;-73
2022/12/30 07:01:51;;;;;;;18.48;10.43;;;;;;;5.10;65.14;97213.73;1780339;77;25662;-72
2022/12/30 07:04:18;;;;;;;22.22;9.73;;;;;;;5.13;65.29;97221.41;1780436;77;25742;-73
2022/12/30 07:06:45;;;;;;;20.23;9.40;;;;;;;5.15;65.32;97230.09;1809016;77;25665;-74
2022/12/30 07:09:11;;;;;;;19.37;9.63;;;;;;;5.18;65.42;97228.91;1793440;77;25632;-73
2022/12/30 07:11:38;;;;;;;17.02;9.15;;;;;;;5.21;65.55;97234.70;1824297;77;27318;-73
2022/12/30 07:14:05;;;;;;;20.92;12.75;;;;;;;5.21;65.70;97244.57;1817009;77;25405;-74
2022/12/30 07:16:31;;;;;;;22.13;12.53;;;;;;;5.23;65.55;97246.06;1780407;77;25724;-75
2022/12/30 07:18:58;;;;;;;29.32;14.05;;;;;;;5.24;65.80;97249.57;1811100;77;25721;-73
2022/12/30 07:21:24;;;;;;;26.40;13.25;;;;;;;5.21;66.15;97252.09;1786188;78;25661;-73
2022/12/30 07:23:51;;;;;;;25.48;13.18;;;;;;;5.21;66.20;97249.42;1818939;78;27368;-73
2022/12/30 07:26:21;;;;;;;27.07;14.00;;;;;;;5.21;66.34;97258.78;1824350;78;25784;-73
2022/12/30 07:28:48;;;;;;;25.72;14.07;;;;;;;5.22;66.58;97263.13;1790235;78;25717;-73
2022/12/30 07:31:14;;;;;;;22.32;13.68;;;;;;;5.20;66.68;97261.64;1796811;78;25719;-73
2022/12/30 07:33:41;;;;;;;25.60;14.83;;;;;;;5.19;66.88;97263.52;1824206;78;25715;-73
2022/12/30 07:36:08;;;;;;;20.12;13.53;;;;;;;5.15;67.11;97266.22;1780976;77;28155;-73
2022/12/30 07:38:35;;;;;;;23.80;13.95;;;;;;;5.13;67.26;97276.27;1780264;78;25565;-73
2022/12/30 07:41:01;;;;;;;24.15;15.03;;;;;;;5.12;67.48;97270.58;1789054;77;25684;-73
2022/12/30 07:43:28;;;;;;;23.75;15.08;;;;;;;5.12;67.53;97275.94;1802247;77;26434;-75
2022/12/30 07:45:54;;;;;;;25.52;16.00;;;;;;;5.14;67.66;97271.23;1780426;77;25770;-73
2022/12/30 07:48:21;;;;;;;36.38;19.30;;;;;;;5.17;67.74;97276.23;1780454;77;26808;-73
2022/12/30 07:50:48;;;;;;;33.90;18.23;;;;;;;5.19;67.78;97284.92;1802884;77;25790;-75
2022/12/30 07:53:17;;;;;;;31.57;17.95;;;;;;;5.21;67.84;97292.74;1789946;77;25703;-73
2022/12/30 07:55:44;;;;;;;32.58;19.85;;;;;;;5.20;68.10;97293.25;1780544;77;25663;-73
2022/12/30 07:58:10;;;;;;;40.55;22.32;;;;;;;5.18;68.15;97304.66;1780387;77;25657;-72
2022/12/30 08:00:37;;;;;;;47.20;25.52;;;;;;;5.20;68.24;97317.33;1780507;77;28176;-73
2022/12/30 08:03:04;;;;;;;43.25;23.60;;;;;;;5.22;68.27;97325.18;1781006;77;25692;-73
2022/12/30 08:05:31;;;;;;;38.53;22.90;;;;;;;5.23;68.40;97334.37;1823974;77;25763;-73
2022/12/30 08:07:58;;;;;;;38.65;24.55;;;;;;;5.19;68.46;97333.09;1824418;77;25735;-74
2022/12/30 08:10:24;;;;;;;36.68;23.75;;;;;;;5.21;68.52;97340.41;1813740;77;25518;-75
2022/12/30 08:12:51;;;;;;;42.40;24.85;;;;;;;5.24;68.65;97339.22;1780549;77;27354;-73
2022/12/30 08:15:18;;;;;;;42.30;25.48;;;;;;;5.26;68.79;97347.41;1780307;77;25423;-73
2022/12/30 08:17:44;;;;;;;44.20;24.87;;;;;;;5.25;68.83;97344.91;1780282;77;25719;-73
2022/12/30 08:20:11;;;;;;;45.17;26.75;;;;;;;5.27;68.96;97346.39;1782430;77;25740;-73
2022/12/30 08:22:39;;;;;;;58.05;30.10;;;;;;;5.27;69.10;97351.75;1788322;78;25844;-74
2022/12/30 08:25:07;;;;;;;54.85;29.87;;;;;;;5.31;69.11;97350.36;1780598;78;27377;-74
2022/12/30 08:27:34;;;;;;;47.98;28.30;;;;;;;5.34;69.28;97351.84;1783296;77;25735;-73
2022/12/30 08:30:00;;;;;;;55.78;32.10;;;;;;;5.37;69.27;97355.01;1795082;77;25760;-74
2022/12/30 08:32:27;;;;;;;54.38;31.42;;;;;;;5.40;69.23;97354.66;1795642;77;25808;-73
2022/12/30 08:34:54;;;;;;;55.35;31.82;;;;;;;5.44;69.28;97352.42;1795106;77;25745;-73
2022/12/30 08:37:21;;;;;;;57.27;31.87;;;;;;;5.47;69.42;97355.26;1797022;77;27325;-74
2022/12/30 08:39:47;;;;;;;60.15;33.95;;;;;;;5.48;69.34;97366.30;1793807;77;25410;-73
2022/12/30 08:42:14;;;;;;;55.90;32.55;;;;;;;5.53;69.27;97366.59;1794672;77;25663;-75
2022/12/30 08:44:41;;;;;;;61.13;33.30;;;;;;;5.57;69.21;97365.20;1805189;78;25752;-72
2022/12/30 08:47:07;;;;;;;59.53;32.35;;;;;;;5.60;69.22;97371.55;1796236;77;25211;-75
2022/12/30 08:49:34;;;;;;;58.85;30.72;;;;;;;5.64;69.20;97376.88;1822600;78;27347;-73
2022/12/30 08:52:02;;;;;;;56.50;31.85;;;;;;;5.68;69.23;97374.14;1815981;77;25595;-74
2022/12/30 08:54:28;;;;;;;57.45;30.52;;;;;;;5.75;69.25;97380.45;1783996;77;25708;-73
2022/12/30 08:56:55;;;;;;;57.45;32.70;;;;;;;5.81;69.12;97377.03;1811509;77;25684;-74
2022/12/30 08:59:22;;;;;;;64.35;36.63;;;;;;;5.85;69.00;97382.36;1780563;77;25790;-75
2022/12/30 09:01:48;;;;;;;64.92;38.85;;;;;;;5.85;68.86;97385.55;1788986;77;27410;-73
2022/12/30 09:04:17;;;;;;;68.05;40.58;;;;;;;5.87;68.87;97390.22;1802235;77;25735;-74
2022/12/30 09:06:44;;;;;;;65.83;39.70;;;;;;;5.89;68.97;97383.70;1785684;77;25669;-73
2022/12/30 09:09:14;;;;;;;66.95;40.50;;;;;;;5.90;69.02;97388.05;1824411;77;25707;-73
2022/12/30 09:11:42;;;;;;;60.38;38.10;;;;;;;5.93;69.13;97402.39;1791103;77;25898;-74
2022/12/30 09:14:11;;;;;;;61.20;39.05;;;;;;;5.94;69.23;97402.72;1780450;77;28195;-75
2022/12/30 09:16:39;;;;;;;58.80;37.23;;;;;;;5.97;69.36;97406.39;1810939;77;25707;-73
2022/12/30 09:19:07;;;;;;;54.70;35.00;;;;;;;6.01;69.45;97402.34;1825706;77;25701;-75
2022/12/30 09:21:34;;;;;;;57.80;34.40;;;;;;;6.05;69.54;97402.27;1806979;77;25810;-73
2022/12/30 09:24:02;;;;;;;59.40;34.10;;;;;;;6.09;69.46;97400.07;1801756;78;25395;-75
2022/12/30 09:26:29;;;;;;;58.95;33.18;;;;;;;6.10;69.30;97406.59;1811204;77;28121;-75
2022/12/30 09:28:56;;;;;;;58.80;34.55;;;;;;;6.12;69.27;97404.56;1818090;78;25507;-74
2022/12/30 09:31:23;;;;;;;63.05;36.35;;;;;;;6.13;69.40;97399.53;1795310;78;25779;-73
2022/12/30 09:33:50;;;;;;;53.87;34.13;;;;;;;6.15;69.43;97400.69;1796286;78;25704;-75
2022/12/30 09:36:17;;;;;;;67.10;37.20;;;;;;;6.15;69.49;97398.02;1827856;78;25400;-73
2022/12/30 09:38:45;;;;;;;59.42;36.63;;;;;;;6.14;69.51;97402.54;1806370;77;27424;-73
2022/12/30 09:44:45;;;;;;;79.77;45.48;;;;;;;6.14;69.71;97401.20;1799078;77;25237;-75
2022/12/30 09:47:42;;;;;;;72.67;43.92;;;;;;;6.17;69.88;97392.44;1806953;77;25736;-73
2022/12/30 10:06:21;;;;;;;79.62;46.45;;;;;;;6.11;70.66;97370.73;1843612;75;26552;-74
2022/12/30 10:09:17;;;;;;;83.92;48.10;;;;;;;6.07;70.65;97374.79;1815982;77;25676;-74
2022/12/30 10:12:12;;;;;;;83.00;46.48;;;;;;;6.06;70.79;97365.09;1796778;77;27464;-74
2022/12/30 10:15:25;;;;;;;79.53;46.23;;;;;;;6.07;71.00;97368.59;1787036;78;25917;-74
2022/12/30 10:18:21;;;;;;;86.28;47.43;;;;;;;6.10;71.12;97359.69;1800512;78;25803;-75
2022/12/30 10:21:16;;;;;;;83.70;47.80;;;;;;;6.14;71.15;97351.62;1806563;77;25737;-73
2022/12/30 10:24:09;;;;;;;93.15;49.45;;;;;;;6.21;71.23;97349.52;1786937;77;25811;-75
2022/12/30 10:26:46;;;;;;;75.95;43.60;;;;;;;6.28;71.23;97352.61;1823379;77;27374;-74
2022/12/30 10:29:30;;;;;;;78.78;47.98;;;;;;;6.33;71.26;97349.37;1808059;78;25738;-73
2022/12/30 10:31:57;;;;;;;82.02;47.20;;;;;;;6.38;71.40;97352.34;1804626;78;25606;-74
2022/12/30 10:34:30;;;;;;;93.60;52.88;;;;;;;6.44;71.47;97355.61;1803989;78;25664;-74
2022/12/30 10:37:08;;;;;;;108.47;60.63;;;;;;;6.49;71.56;97350.53;1806852;79;25692;-75
2022/12/30 10:39:38;;;;;;;102.87;56.55;;;;;;;6.52;71.60;97343.42;1807164;78;27370;-74
2022/12/30 10:42:32;;;;;;;102.65;55.88;;;;;;;6.58;71.61;97346.72;1804571;78;25693;-75
2022/12/30 10:45:24;;;;;;;84.42;50.80;;;;;;;6.64;71.64;97337.91;1810422;78;25741;-75
2022/12/30 10:48:16;;;;;;;87.63;49.80;;;;;;;6.75;71.58;97352.20;1809526;78;25819;-75
2022/12/30 10:50:48;;;;;;;89.05;48.70;;;;;;;6.82;71.60;97350.41;1807170;78;25229;-75
2022/12/30 10:53:20;;;;;;;84.15;47.03;;;;;;;6.86;71.60;97353.05;1803375;78;26849;-74
2022/12/30 10:55:54;;;;;;;85.90;48.70;;;;;;;6.93;71.54;97356.30;1804938;78;25641;-74
2022/12/30 10:58:41;;;;;;;79.47;43.60;;;;;;;6.97;71.56;97344.17;1814217;78;25744;-74
2022/12/30 11:01:13;;;;;;;63.65;36.00;;;;;;;7.03;71.58;97342.06;1789738;79;25778;-75
2022/12/30 11:03:46;;;;;;;72.40;34.90;;;;;;;7.11;71.34;97338.77;1713219;82;25761;-76
2022/12/30 11:06:23;;;;;;;63.58;34.55;;;;;;;7.22;71.25;97339.59;1664229;85;27421;-74
2022/12/30 11:08:53;;;;;;;61.88;35.73;;;;;;;7.34;71.16;97338.56;1665065;85;25766;-73
2022/12/30 11:14:42;;;;;;;48.92;29.50;;;;;;;7.44;71.07;97336.38;1665476;85;25908;-73
2022/12/30 11:16:42;;;;;;;42.15;22.93;;;;;;;7.58;70.26;97348.91;1635048;86;25802;-74
2022/12/30 11:19:23;;;;;;;42.20;22.85;;;;;;;7.64;70.06;97347.28;1656947;85;27482;-74
2022/12/30 11:21:55;;;;;;;41.42;23.80;;;;;;;7.71;69.92;97340.63;1601308;87;25800;-74
2022/12/30 11:24:23;;;;;;;41.18;24.77;;;;;;;7.76;70.00;97347.58;1607254;88;25800;-74
2022/12/30 11:26:50;;;;;;;44.88;26.80;;;;;;;7.78;70.01;97344.19;1637679;86;25829;-74
2022/12/30 11:29:20;;;;;;;46.60;26.48;;;;;;;7.80;69.90;97344.83;1643099;86;25852;-73
2022/12/30 11:31:51;;;;;;;40.52;20.55;;;;;;;7.85;69.84;97347.75;1642942;86;27457;-74
2022/12/30 11:34:38;;;;;;;33.63;20.30;;;;;;;7.89;69.36;97346.34;1642923;86;25909;-74
2022/12/30 11:37:34;;;;;;;37.80;20.82;;;;;;;7.93;69.14;97339.05;1607943;87;25822;-74
2022/12/30 11:40:27;;;;;;;34.65;20.48;;;;;;;7.98;69.16;97333.06;1533830;91;25827;-74
2022/12/30 11:43:17;;;;;;;31.42;19.07;;;;;;;8.10;69.17;97331.99;1564425;90;25865;-73
2022/12/30 11:46:03;;;;;;;33.53;18.85;;;;;;;8.19;68.85;97337.55;1533958;93;27291;-74
2022/12/30 11:48:52;;;;;;;30.68;18.35;;;;;;;8.28;68.66;97344.42;1508617;94;25472;-74
2022/12/30 11:51:32;;;;;;;32.67;19.30;;;;;;;8.36;68.66;97340.25;1509261;94;25879;-74
2022/12/30 11:54:16;;;;;;;33.90;19.02;;;;;;;8.45;68.42;97336.91;1511834;94;25867;-75
2022/12/30 11:57:02;;;;;;;31.75;18.92;;;;;;;8.62;68.46;97338.20;1482827;94;25848;-74
2022/12/30 11:59:45;;;;;;;33.25;17.82;;;;;;;8.95;68.51;97339.14;1511873;93;28224;-75
2022/12/30 12:02:32;;;;;;;29.40;17.27;;;;;;;9.33;68.29;97339.96;1509618;93;25916;-73
2022/12/30 12:04:59;;;;;;;27.55;16.97;;;;;;;9.66;67.61;97332.72;1487547;94;25902;-74
2022/12/30 12:07:37;;;;;;;26.90;16.70;;;;;;;9.94;66.65;97331.69;1492804;93;26053;-74
2022/12/30 12:10:22;;;;;;;24.90;14.68;;;;;;;10.10;66.33;97333.95;1521205;93;25874;-74
2022/12/30 12:12:56;;;;;;;27.87;16.37;;;;;;;10.29;65.86;97329.58;1512895;94;27465;-73
2022/12/30 12:15:40;;;;;;;20.68;13.05;;;;;;;10.44;65.61;97328.30;1498497;94;25929;-74
2022/12/30 12:18:21;;;;;;;19.85;12.93;;;;;;;10.60;65.27;97324.83;1511434;94;25904;-74
2022/12/30 12:21:20;;;;;;;20.45;12.58;;;;;;;10.69;64.89;97329.77;1496041;94;25866;-75
2022/12/30 12:23:58;;;;;;;20.75;12.47;;;;;;;10.77;64.48;97330.04;1472852;95;25811;-75
2022/12/30 12:26:42;;;;;;;23.18;13.58;;;;;;;10.86;64.03;97332.00;1468148;95;28280;-74
2022/12/30 12:29:13;;;;;;;25.52;15.08;;;;;;;11.00;63.68;97332.21;1429367;98;25925;-73
2022/12/30 12:32:09;;;;;;;28.47;15.88;;;;;;;11.09;63.40;97334.47;1388891;102;25941;-74
2022/12/30 12:35:03;;;;;;;31.85;17.35;;;;;;;11.16;63.30;97339.30;1393301;100;25869;-74
2022/12/30 12:37:56;;;;;;;32.33;18.57;;;;;;;11.25;63.09;97341.22;1371171;103;25960;-73
2022/12/30 12:40:55;;;;;;;28.15;17.65;;;;;;;11.18;62.35;97339.92;1372588;103;27480;-73
2022/12/30 12:43:44;;;;;;;30.02;16.60;;;;;;;11.08;62.28;97334.69;1336238;105;26006;-75
2022/12/30 12:46:47;;;;;;;29.32;16.75;;;;;;;10.96;62.00;97341.29;1352583;105;25960;-74
2022/12/30 12:50:02;;;;;;;24.80;16.32;;;;;;;10.93;61.96;97343.06;1359543;102;26026;-76
2022/12/30 12:52:52;;;;;;;28.85;17.95;;;;;;;10.84;61.75;97347.06;1374996;102;25975;-76
2022/12/30 12:56:09;;;;;;;35.38;19.75;;;;;;;10.77;61.67;97348.42;1388557;101;28386;-74
2022/12/30 12:58:59;;;;;;;29.57;16.90;;;;;;;10.77;61.60;97359.73;1384721;101;25878;-76
2022/12/30 13:01:38;;;;;;;31.50;18.12;;;;;;;10.74;61.43;97354.79;1405620;99;25564;-74
2022/12/30 13:04:31;;;;;;;31.27;18.00;;;;;;;10.68;61.43;97351.06;1434450;99;25832;-75
2022/12/30 13:07:41;;;;;;;32.85;19.52;;;;;;;10.65;61.28;97354.17;1457959;94;25877;-75